createdAt,value
2023-02-14T00:01:10.418Z,99.90
2023-02-14T00:03:37.698Z,99.90
2023-02-14T00:06:09.971Z,99.90
2023-02-14T00:08:37.443Z,99.90
2023-02-14T00:11:05.605Z,99.90
2023-02-14T00:13:32.782Z,99.90
2023-02-14T00:16:00.023Z,99.90
2023-02-14T00:18:45.715Z,99.90
2023-02-14T00:21:12.889Z,99.90
2023-02-14T00:23:40.444Z,99.90
2023-02-14T00:26:14.061Z,99.90
2023-02-14T00:28:42.789Z,99.90
2023-02-14T00:31:10.216Z,99.90
2023-02-14T00:33:37.674Z,99.90
2023-02-14T00:36:08.100Z,99.90
2023-02-14T00:38:35.470Z,99.90
2023-02-14T00:41:02.811Z,99.90
2023-02-14T00:43:29.951Z,99.90
2023-02-14T00:45:57.805Z,99.90
2023-02-14T00:48:25.613Z,99.90
2023-02-14T00:50:52.767Z,99.90
2023-02-14T00:53:19.848Z,99.90
2023-02-14T00:55:47.198Z,99.90
2023-02-14T00:58:15.300Z,99.90
2023-02-14T01:00:42.508Z,99.90
2023-02-14T01:03:09.681Z,99.90
2023-02-14T01:05:37.033Z,99.90
2023-02-14T01:08:04.762Z,99.90
2023-02-14T01:10:32.060Z,99.90
2023-02-14T01:12:59.549Z,99.90
2023-02-14T01:15:28.433Z,99.90
2023-02-14T01:17:55.573Z,99.90
2023-02-14T01:20:22.675Z,99.90
2023-02-14T01:22:49.755Z,99.90
2023-02-14T01:25:17.168Z,99.90
2023-02-14T01:27:44.325Z,99.90
2023-02-14T01:30:14.331Z,99.90
2023-02-14T01:32:42.501Z,99.90
2023-02-14T01:35:10.542Z,99.90
2023-02-14T01:37:37.761Z,99.90
2023-02-14T01:40:08.451Z,99.90
2023-02-14T01:42:37.449Z,99.90
2023-02-14T01:45:22.342Z,99.90
2023-02-14T01:47:53.528Z,99.90
2023-02-14T01:50:35.828Z,99.90
2023-02-14T01:53:11.604Z,99.90
2023-02-14T01:55:45.309Z,99.90
2023-02-14T01:58:23.903Z,99.90
2023-02-14T02:01:00.332Z,99.90
2023-02-14T02:03:51.000Z,99.90
2023-02-14T02:06:23.622Z,99.90
2023-02-14T02:09:25.720Z,99.90
2023-02-14T02:11:53.585Z,99.90
2023-02-14T02:14:23.088Z,99.90
2023-02-14T02:16:53.217Z,99.90
2023-02-14T02:19:45.726Z,99.90
2023-02-14T02:22:24.758Z,99.90
2023-02-14T02:25:14.029Z,99.90
2023-02-14T02:27:50.225Z,99.90
2023-02-14T02:30:20.146Z,99.90
2023-02-14T02:33:07.011Z,99.90
2023-02-14T02:35:54.398Z,99.90
2023-02-14T02:38:47.722Z,99.90
2023-02-14T02:41:32.978Z,99.90
2023-02-14T02:44:09.221Z,99.90
2023-02-14T02:46:48.553Z,99.90
2023-02-14T02:50:16.329Z,99.90
2023-02-14T02:53:06.549Z,99.90
2023-02-14T02:56:12.812Z,99.90
2023-02-14T02:58:40.841Z,99.90
2023-02-14T03:01:12.615Z,99.90
2023-02-14T03:04:10.974Z,99.90
2023-02-14T03:06:38.003Z,99.90
2023-02-14T03:09:36.148Z,99.90
2023-02-14T03:12:24.763Z,99.90
2023-02-14T03:15:23.176Z,99.90
2023-02-14T03:17:56.112Z,99.90
2023-02-14T03:20:34.283Z,99.90
2023-02-14T03:23:11.016Z,99.90
2023-02-14T03:25:51.261Z,99.90
2023-02-14T03:28:23.802Z,99.90
2023-02-14T03:31:06.327Z,99.90
2023-02-14T03:33:58.281Z,99.90
2023-02-14T03:36:50.736Z,99.90
2023-02-14T03:39:51.830Z,99.90
2023-02-14T03:42:31.125Z,99.90
2023-02-14T03:45:00.674Z,99.90
2023-02-14T03:47:31.966Z,99.90
2023-02-14T03:50:26.096Z,99.90
2023-02-14T03:52:55.746Z,99.90
2023-02-14T03:55:49.343Z,99.90
2023-02-14T03:58:32.759Z,99.90
2023-02-14T04:01:22.270Z,99.90
2023-02-14T04:03:50.489Z,99.90
2023-02-14T04:06:20.029Z,99.90
2023-02-14T04:08:47.146Z,99.90
2023-02-14T04:11:14.622Z,99.90
2023-02-14T04:13:44.530Z,99.90
2023-02-14T04:16:11.787Z,99.90
2023-02-14T04:18:57.299Z,99.90
2023-02-14T04:21:24.710Z,99.90
2023-02-14T04:23:51.839Z,99.90
2023-02-14T04:26:18.871Z,99.90
2023-02-14T04:28:46.056Z,99.90
2023-02-14T04:31:13.201Z,99.90
2023-02-14T04:33:40.433Z,99.90
2023-02-14T04:36:07.672Z,99.90
2023-02-14T04:38:34.762Z,99.90
2023-02-14T04:41:02.235Z,99.90
2023-02-14T04:43:29.712Z,99.90
2023-02-14T04:45:56.882Z,99.90
2023-02-14T04:48:23.973Z,99.90
2023-02-14T04:50:55.144Z,99.90
2023-02-14T04:53:22.761Z,99.90
2023-02-14T04:55:50.306Z,99.90
2023-02-14T04:58:17.891Z,99.90
2023-02-14T05:00:45.144Z,99.90
2023-02-14T05:03:12.268Z,99.90
2023-02-14T05:05:39.462Z,99.90
2023-02-14T05:08:06.613Z,99.90
2023-02-14T05:10:33.771Z,99.90
2023-02-14T05:13:01.518Z,99.90
2023-02-14T05:15:28.646Z,99.90
2023-02-14T05:17:55.684Z,99.90
2023-02-14T05:20:22.831Z,99.90
2023-02-14T05:22:49.861Z,99.90
2023-02-14T05:25:16.993Z,99.90
2023-02-14T05:27:43.993Z,99.90
2023-02-14T05:30:12.228Z,99.90
2023-02-14T05:32:39.370Z,99.90
2023-02-14T05:35:06.736Z,99.90
2023-02-14T05:37:33.827Z,99.90
2023-02-14T05:40:00.879Z,99.90
2023-02-14T05:42:28.002Z,99.90
2023-02-14T05:44:55.154Z,99.90
2023-02-14T05:47:22.237Z,99.90
2023-02-14T05:49:49.332Z,99.90
2023-02-14T05:52:16.439Z,99.90
2023-02-14T05:54:43.510Z,99.90
2023-02-14T05:57:10.610Z,99.90
2023-02-14T05:59:37.626Z,99.90
2023-02-14T06:02:04.755Z,99.90
2023-02-14T06:04:31.842Z,99.90
2023-02-14T06:06:59.061Z,99.90
2023-02-14T06:09:26.136Z,99.90
2023-02-14T06:11:55.195Z,99.90
2023-02-14T06:14:22.560Z,99.90
2023-02-14T06:16:49.872Z,99.90
2023-02-14T06:19:16.957Z,99.90
2023-02-14T06:21:44.100Z,99.90
2023-02-14T06:24:11.134Z,99.90
2023-02-14T06:26:38.266Z,99.90
2023-02-14T06:29:05.481Z,99.90
2023-02-14T06:31:32.670Z,99.90
2023-02-14T06:33:59.988Z,99.90
2023-02-14T06:36:27.414Z,99.90
2023-02-14T06:38:54.513Z,99.90
2023-02-14T06:41:21.565Z,99.90
2023-02-14T06:43:51.430Z,99.90
2023-02-14T06:46:19.150Z,99.90
2023-02-14T06:48:46.661Z,99.90
2023-02-14T06:51:13.943Z,99.90
2023-02-14T06:53:41.259Z,99.90
2023-02-14T06:56:08.405Z,99.90
2023-02-14T06:58:35.761Z,99.90
2023-02-14T07:01:03.171Z,99.90
2023-02-14T07:03:30.462Z,99.90
2023-02-14T07:05:58.581Z,99.90
2023-02-14T07:08:26.370Z,99.90
2023-02-14T07:10:59.732Z,99.90
2023-02-14T07:13:27.223Z,99.90
2023-02-14T07:15:54.490Z,99.90
2023-02-14T07:18:21.601Z,99.90
2023-02-14T07:20:50.311Z,99.90
2023-02-14T07:23:17.607Z,99.90
2023-02-14T07:25:44.671Z,99.90
2023-02-14T07:28:11.717Z,99.90
2023-02-14T07:30:38.854Z,99.90
2023-02-14T07:33:06.162Z,99.90
2023-02-14T07:35:35.231Z,99.90
2023-02-14T07:38:02.328Z,99.90
2023-02-14T07:40:30.108Z,99.90
2023-02-14T07:42:58.325Z,99.90
2023-02-14T07:45:26.244Z,99.90
2023-02-14T07:47:55.249Z,99.90
2023-02-14T07:50:23.474Z,99.90
2023-02-14T07:52:50.954Z,99.90
2023-02-14T07:55:19.415Z,99.90
2023-02-14T07:57:48.987Z,99.90
2023-02-14T08:00:16.463Z,99.90
2023-02-14T08:02:43.942Z,99.90
2023-02-14T08:05:11.301Z,99.90
2023-02-14T08:07:38.424Z,99.90
2023-02-14T08:10:06.219Z,99.90
2023-02-14T08:12:52.103Z,99.90
2023-02-14T08:15:37.671Z,99.90
2023-02-14T08:18:04.857Z,99.90
2023-02-14T08:20:32.153Z,99.90
2023-02-14T08:22:59.312Z,99.90
2023-02-14T08:25:26.448Z,99.90
2023-02-14T08:27:55.280Z,99.90
2023-02-14T08:30:23.388Z,99.90
2023-02-14T08:32:50.615Z,99.90
2023-02-14T08:35:19.308Z,99.90
2023-02-14T08:37:46.475Z,99.90
2023-02-14T08:40:13.670Z,99.90
2023-02-14T08:42:40.969Z,99.90
2023-02-14T08:45:08.617Z,99.90
2023-02-14T08:47:36.064Z,99.90
2023-02-14T08:50:04.513Z,99.90
2023-02-14T08:52:31.632Z,99.90
2023-02-14T08:54:58.730Z,99.90
2023-02-14T08:57:27.909Z,99.90
2023-02-14T08:59:54.971Z,99.90
2023-02-14T09:02:21.980Z,99.90
2023-02-14T09:04:49.117Z,99.90
2023-02-14T09:07:16.216Z,99.90
2023-02-14T09:09:43.277Z,99.90
2023-02-14T09:12:10.982Z,99.90
2023-02-14T09:14:40.003Z,99.90
2023-02-14T09:17:07.820Z,99.90
2023-02-14T09:19:36.181Z,99.90
2023-02-14T09:22:04.325Z,99.90
2023-02-14T09:24:33.768Z,99.90
2023-02-14T09:27:01.007Z,99.90
2023-02-14T09:29:28.785Z,99.90
2023-02-14T09:32:01.442Z,99.90
2023-02-14T09:34:30.140Z,99.90
2023-02-14T09:37:15.798Z,99.90
2023-02-14T09:39:42.843Z,99.90
2023-02-14T09:42:12.721Z,99.90
2023-02-14T09:44:53.902Z,99.90
2023-02-14T09:47:49.168Z,99.90
2023-02-14T09:50:34.614Z,99.90
2023-02-14T09:53:08.224Z,99.90
2023-02-14T09:55:47.490Z,99.90
2023-02-14T09:58:23.535Z,99.90
2023-02-14T10:01:00.872Z,99.90
2023-02-14T10:03:46.864Z,99.90
2023-02-14T10:06:43.883Z,99.90
2023-02-14T10:09:37.467Z,99.90
2023-02-14T10:12:09.105Z,99.90
2023-02-14T10:14:41.107Z,99.90
2023-02-14T10:17:14.307Z,99.90
2023-02-14T10:20:02.955Z,99.90
2023-02-14T10:22:41.784Z,99.90
2023-02-14T10:25:22.590Z,99.90
2023-02-14T10:27:50.158Z,99.90
2023-02-14T10:30:21.425Z,99.90
2023-02-14T10:32:50.422Z,99.90
2023-02-14T10:36:02.331Z,99.90
2023-02-14T10:38:51.017Z,99.90
2023-02-14T10:41:48.587Z,98.20
2023-02-14T10:44:46.281Z,97.50
2023-02-14T10:47:28.363Z,97.20
2023-02-14T10:50:37.345Z,96.60
2023-02-14T10:53:42.043Z,96.20
2023-02-14T10:56:20.235Z,96.10
2023-02-14T10:58:49.760Z,95.50
2023-02-14T11:01:18.683Z,97.20
2023-02-14T11:04:04.250Z,97.00
2023-02-14T11:06:31.727Z,95.80
2023-02-14T11:08:59.279Z,95.50
2023-02-14T11:11:49.549Z,95.40
2023-02-14T11:14:25.982Z,95.00
2023-02-14T11:16:54.717Z,95.40
2023-02-14T11:19:28.077Z,95.00
2023-02-14T11:21:58.506Z,94.30
2023-02-14T11:24:31.646Z,93.60
2023-02-14T11:27:08.242Z,94.50
2023-02-14T11:29:53.186Z,95.10
2023-02-14T11:32:24.686Z,94.50
2023-02-14T11:34:58.105Z,93.60
2023-02-14T11:37:28.651Z,94.10
2023-02-14T11:39:58.716Z,93.70
2023-02-14T11:42:46.588Z,92.90
2023-02-14T11:45:31.793Z,92.40
2023-02-14T11:48:41.976Z,92.60
2023-02-14T11:51:14.627Z,93.20
2023-02-14T11:53:53.578Z,93.10
2023-02-14T11:56:22.210Z,93.30
2023-02-14T11:58:56.660Z,93.20
2023-02-14T12:01:35.758Z,91.90
2023-02-14T12:04:14.310Z,91.30
2023-02-14T12:06:41.525Z,91.40
2023-02-14T12:09:26.421Z,91.50
2023-02-14T12:12:05.085Z,91.70
2023-02-14T12:14:35.472Z,92.50
2023-02-14T12:17:17.501Z,92.30
2023-02-14T12:19:47.542Z,91.20
2023-02-14T12:22:19.350Z,92.10
2023-02-14T12:25:05.216Z,91.70
2023-02-14T12:27:57.022Z,91.80
2023-02-14T12:30:26.412Z,92.10
2023-02-14T12:32:58.769Z,91.40
2023-02-14T12:35:31.984Z,91.40
2023-02-14T12:38:12.052Z,90.80
2023-02-14T12:40:57.369Z,91.00
2023-02-14T12:43:43.555Z,91.00
2023-02-14T12:49:14.105Z,90.70
2023-02-14T12:51:59.902Z,90.00
2023-02-14T12:54:42.388Z,90.10
2023-02-14T12:57:41.228Z,90.60
2023-02-14T13:00:32.150Z,90.30
2023-02-14T13:03:11.193Z,90.00
2023-02-14T13:06:04.693Z,88.70
2023-02-14T13:09:04.040Z,88.60
2023-02-14T13:11:58.851Z,88.00
2023-02-14T13:14:48.204Z,87.80
2023-02-14T13:17:35.616Z,88.90
2023-02-14T13:20:08.812Z,89.20
2023-02-14T13:22:36.699Z,89.40
2023-02-14T13:25:13.346Z,89.90
2023-02-14T13:27:41.657Z,89.20
2023-02-14T13:30:25.226Z,89.80
2023-02-14T13:32:55.593Z,89.30
2023-02-14T13:35:24.192Z,89.60
2023-02-14T13:37:58.906Z,89.10
2023-02-14T13:40:28.191Z,89.60
2023-02-14T13:42:57.891Z,88.60
2023-02-14T13:45:37.777Z,88.10
2023-02-14T13:48:06.632Z,88.60
2023-02-14T13:50:38.541Z,87.60
2023-02-14T13:53:06.198Z,87.80
2023-02-14T13:55:37.196Z,88.00
2023-02-14T13:58:21.854Z,88.60
2023-02-14T14:00:51.336Z,87.90
2023-02-14T14:03:28.936Z,88.30
2023-02-14T14:06:11.471Z,87.50
2023-02-14T14:08:48.090Z,87.90
2023-02-14T14:11:21.236Z,88.00
2023-02-14T14:14:30.176Z,87.80
2023-02-14T14:17:00.907Z,87.90
2023-02-14T14:19:28.222Z,88.80
2023-02-14T14:22:10.343Z,89.00
2023-02-14T14:24:50.893Z,89.10
2023-02-14T14:27:29.278Z,89.50
2023-02-14T14:29:56.417Z,89.90
2023-02-14T14:32:35.767Z,89.20
2023-02-14T14:35:18.026Z,90.00
2023-02-14T14:37:51.192Z,90.20
2023-02-14T14:40:20.324Z,90.20
2023-02-14T14:42:48.947Z,90.50
2023-02-14T14:45:25.598Z,90.60
2023-02-14T14:47:55.216Z,90.60
2023-02-14T14:50:28.541Z,90.60
2023-02-14T14:53:05.569Z,90.70
2023-02-14T14:55:44.555Z,90.70
2023-02-14T14:58:36.557Z,90.50
2023-02-14T15:01:05.407Z,90.40
2023-02-14T15:03:33.053Z,90.70
2023-02-14T15:06:21.990Z,90.70
2023-02-14T15:08:50.080Z,90.70
2023-02-14T15:12:04.093Z,91.00
2023-02-14T15:14:36.140Z,91.00
2023-02-14T15:17:14.460Z,91.30
2023-02-14T15:19:50.989Z,91.50
2023-02-14T15:22:24.731Z,91.60
2023-02-14T15:24:52.095Z,91.70
2023-02-14T15:27:23.415Z,91.80
2023-02-14T15:30:06.772Z,92.00
2023-02-14T15:32:36.370Z,92.20
2023-02-14T15:35:06.859Z,92.40
2023-02-14T15:37:34.782Z,92.60
2023-02-14T15:40:02.691Z,92.70
2023-02-14T15:42:33.075Z,93.00
2023-02-14T15:45:28.303Z,93.20
2023-02-14T15:48:04.628Z,93.50
2023-02-14T15:50:36.664Z,93.80
2023-02-14T15:53:21.118Z,94.10
2023-02-14T15:55:50.035Z,94.30
2023-02-14T15:58:28.378Z,94.50
2023-02-14T16:00:56.342Z,94.50
2023-02-14T16:03:26.894Z,94.70
2023-02-14T16:05:55.059Z,95.00
2023-02-14T16:08:35.448Z,95.10
2023-02-14T16:11:14.575Z,95.40
2023-02-14T16:13:51.497Z,95.60
2023-02-14T16:16:20.383Z,95.90
2023-02-14T16:18:48.889Z,96.20
2023-02-14T16:21:35.015Z,96.50
2023-02-14T16:24:10.854Z,96.70
2023-02-14T16:26:43.329Z,96.90
2023-02-14T16:29:16.642Z,97.40
2023-02-14T16:32:14.531Z,97.80
2023-02-14T16:34:43.370Z,98.10
2023-02-14T16:37:29.242Z,98.40
2023-02-14T16:39:58.701Z,98.80
2023-02-14T16:42:26.326Z,99.10
2023-02-14T16:44:55.650Z,99.40
2023-02-14T16:47:23.296Z,99.60
2023-02-14T16:49:53.475Z,99.90
2023-02-14T16:52:25.785Z,99.90
2023-02-14T16:54:53.998Z,99.90
2023-02-14T16:57:33.822Z,99.90
2023-02-14T17:00:01.693Z,99.90
2023-02-14T17:02:29.369Z,99.90
2023-02-14T17:04:57.251Z,99.90
2023-02-14T17:07:24.688Z,99.90
2023-02-14T17:09:57.789Z,99.90
2023-02-14T17:12:30.387Z,99.90
2023-02-14T17:15:02.332Z,99.90
2023-02-14T17:17:30.491Z,99.90
2023-02-14T17:19:58.868Z,99.90
2023-02-14T17:22:26.641Z,99.90
2023-02-14T17:24:56.694Z,99.90
2023-02-14T17:27:24.604Z,99.90
2023-02-14T17:29:52.311Z,99.90
2023-02-14T17:32:20.142Z,99.90
2023-02-14T17:34:48.528Z,99.90
2023-02-14T17:37:16.586Z,99.90
2023-02-14T17:39:46.088Z,99.90
2023-02-14T17:42:13.580Z,99.90
2023-02-14T17:44:41.425Z,99.90
2023-02-14T17:47:09.201Z,99.90
2023-02-14T17:49:36.898Z,99.90
2023-02-14T17:52:04.950Z,99.90
2023-02-14T17:54:38.847Z,99.90
2023-02-14T17:57:06.497Z,99.90
2023-02-14T17:59:34.900Z,99.90
2023-02-14T18:02:02.917Z,99.90
2023-02-14T18:04:32.409Z,99.90
2023-02-14T18:07:00.760Z,99.90
2023-02-14T18:09:29.061Z,99.90
2023-02-14T18:11:57.295Z,99.90
2023-02-14T18:14:25.393Z,99.90
2023-02-14T18:16:53.197Z,99.90
2023-02-14T18:19:21.352Z,99.90
2023-02-14T18:21:50.484Z,99.90
2023-02-14T18:24:18.807Z,99.90
2023-02-14T18:26:47.166Z,99.90
2023-02-14T18:29:15.621Z,99.90
2023-02-14T18:31:44.820Z,99.90
2023-02-14T18:34:13.538Z,99.90
2023-02-14T18:36:43.305Z,99.90
2023-02-14T18:39:11.436Z,99.90
2023-02-14T18:41:39.967Z,99.90
2023-02-14T18:44:08.513Z,99.90
2023-02-14T18:46:37.560Z,99.90
2023-02-14T18:49:09.229Z,99.90
2023-02-14T18:51:40.026Z,99.90
2023-02-14T18:54:08.687Z,99.90
2023-02-14T18:56:38.542Z,99.90
2023-02-14T18:59:11.445Z,99.90
2023-02-14T19:01:42.700Z,99.90
2023-02-14T19:04:14.210Z,99.90
2023-02-14T19:06:43.088Z,99.90
2023-02-14T19:09:15.402Z,99.90
2023-02-14T19:11:44.773Z,99.90
2023-02-14T19:14:14.026Z,99.90
2023-02-14T19:16:51.268Z,99.90
2023-02-14T19:19:22.713Z,99.90
2023-02-14T19:21:52.027Z,99.90
2023-02-14T19:24:20.953Z,99.90
2023-02-14T19:26:49.382Z,99.90
2023-02-14T19:29:19.847Z,99.90
2023-02-14T19:31:55.609Z,99.90
2023-02-14T19:34:31.602Z,99.90
2023-02-14T19:37:03.681Z,99.90
2023-02-14T19:39:34.099Z,99.90
2023-02-14T19:42:08.850Z,99.90
2023-02-14T19:44:38.695Z,99.90
2023-02-14T19:47:19.401Z,99.90
2023-02-14T19:49:53.653Z,99.90
2023-02-14T19:52:26.881Z,99.90
2023-02-14T19:54:57.862Z,99.90
2023-02-14T19:57:26.509Z,99.90
2023-02-14T19:59:54.948Z,99.90
2023-02-14T20:02:24.106Z,99.90
2023-02-14T20:04:54.110Z,99.90
2023-02-14T20:07:23.103Z,99.90
2023-02-14T20:09:51.635Z,99.90
2023-02-14T20:12:20.280Z,99.90
2023-02-14T20:14:52.045Z,99.90
2023-02-14T20:17:22.219Z,99.90
2023-02-14T20:19:50.796Z,99.90
2023-02-14T20:22:21.450Z,99.90
2023-02-14T20:24:49.992Z,99.90
2023-02-14T20:27:19.308Z,99.90
2023-02-14T20:29:50.269Z,99.90
2023-02-14T20:32:19.898Z,99.90
2023-02-14T20:34:49.495Z,99.90
2023-02-14T20:37:18.535Z,99.90
2023-02-14T20:39:47.392Z,99.90
2023-02-14T20:42:18.981Z,99.90
2023-02-14T20:45:08.360Z,99.90
2023-02-14T20:47:37.261Z,99.90
2023-02-14T20:50:06.425Z,99.90
2023-02-14T20:52:37.602Z,99.90
2023-02-14T20:55:09.583Z,99.90
2023-02-14T20:57:41.312Z,99.90
2023-02-14T21:00:11.257Z,99.90
2023-02-14T21:02:39.890Z,99.90
2023-02-14T21:05:09.976Z,99.90
2023-02-14T21:07:42.091Z,99.90
2023-02-14T21:10:10.512Z,99.90
2023-02-14T21:12:39.283Z,99.90
2023-02-14T21:15:09.864Z,99.90
2023-02-14T21:17:39.623Z,99.90
2023-02-14T21:20:11.200Z,99.90
2023-02-14T21:22:39.766Z,99.90
2023-02-14T21:25:08.698Z,99.90
2023-02-14T21:27:37.330Z,99.90
2023-02-14T21:30:06.183Z,99.90
2023-02-14T21:32:34.259Z,99.90
2023-02-14T21:35:03.881Z,99.90
2023-02-14T21:37:33.371Z,99.90
2023-02-14T21:40:01.589Z,99.90
2023-02-14T21:42:29.919Z,99.90
2023-02-14T21:45:16.598Z,99.90
2023-02-14T21:48:04.800Z,99.90
2023-02-14T21:50:33.284Z,99.90
2023-02-14T21:53:21.423Z,99.90
2023-02-14T21:55:49.606Z,99.90
2023-02-14T21:58:17.651Z,99.90
2023-02-14T22:00:47.021Z,99.90
2023-02-14T22:03:14.443Z,99.90
2023-02-14T22:05:41.892Z,99.90
2023-02-14T22:08:09.503Z,99.90
2023-02-14T22:10:39.841Z,99.90
2023-02-14T22:13:07.429Z,99.90
2023-02-14T22:15:34.542Z,99.90
2023-02-14T22:18:01.999Z,99.90
2023-02-14T22:20:29.092Z,99.90
2023-02-14T22:22:56.254Z,99.90
2023-02-14T22:25:25.358Z,99.90
2023-02-14T22:27:52.412Z,99.90
2023-02-14T22:30:19.612Z,99.90
2023-02-14T22:32:46.739Z,99.90
2023-02-14T22:35:13.829Z,99.90
2023-02-14T22:37:40.913Z,99.90
2023-02-14T22:40:08.543Z,99.90
2023-02-14T22:42:35.563Z,99.90
2023-02-14T22:45:03.432Z,99.90
2023-02-14T22:47:32.047Z,99.90
2023-02-14T22:50:01.084Z,99.90
2023-02-14T22:52:28.422Z,99.90
2023-02-14T22:54:55.424Z,99.90
2023-02-14T22:57:22.473Z,99.90
2023-02-14T22:59:49.526Z,99.90
2023-02-14T23:02:16.598Z,99.90
2023-02-14T23:04:43.722Z,99.90
2023-02-14T23:07:11.892Z,99.90
2023-02-14T23:09:39.012Z,99.90
2023-02-14T23:12:26.212Z,99.90
2023-02-14T23:15:11.892Z,99.90
2023-02-14T23:18:08.027Z,99.90
2023-02-14T23:20:53.905Z,99.90
2023-02-14T23:23:21.053Z,99.90
2023-02-14T23:25:48.111Z,99.90
2023-02-14T23:28:15.320Z,99.90
2023-02-14T23:30:42.355Z,99.90
2023-02-14T23:33:09.480Z,99.90
2023-02-14T23:35:37.691Z,99.90
2023-02-14T23:38:04.710Z,99.90
2023-02-14T23:40:51.785Z,99.90
2023-02-14T23:43:18.908Z,99.90
2023-02-14T23:45:45.956Z,99.90
2023-02-14T23:48:13.086Z,99.90
2023-02-14T23:50:40.175Z,99.90
2023-02-14T23:53:07.450Z,99.90
2023-02-14T23:55:34.583Z,99.90
2023-02-14T23:58:01.665Z,99.90
